Hier das METAR für die 16 wichtigsten Deutschen Flughäfen.
(dauert ein wenig.... ich muss laden.....)

ODER
METAR nach ICAO Code suchen

Berlin - Schönefeld

EDDB

METAR
EDDB 302320Z AUTO 09008KT 5000 BR OVC004 00/M01 Q1028 TEMPO 4000 BR
EDDBMETAR lang
Berlin-Schoenefeld, Germany (EDDB) 52-23N 013-31E 50M
Nov 30, 2022 - 06:20 PM EST / 2022.11.30 2320 UTC
Wind: from the E (090 degrees) at 9 MPH (8 KT):0
Visibility: 3 mile(s):0
Sky conditions: overcast
Weather: mist
Temperature: 32 F (0 C)
Windchill: 24 F (-4 C):1
Dew Point: 30 F (-1 C)
Relative Humidity: 92%
Pressure (altimeter): 30.36 in. Hg (1028 hPa)
ob: EDDB 302320Z AUTO 09008KT 5000 BR OVC004 00/M01 Q1028 TEMPO 4000 BR
cycle: 23

Dresden

EDDC

METAR
EDDC 302320Z AUTO 10008KT 4600 BR OVC003 M01/M01 Q1026
EDDCMETAR lang
Dresden-Klotzsche, Germany (EDDC) 51-08N 013-45E 232M
Nov 30, 2022 - 06:20 PM EST / 2022.11.30 2320 UTC
Wind: from the E (100 degrees) at 9 MPH (8 KT):0
Visibility: 2 mile(s):0
Sky conditions: overcast
Weather: mist
Temperature: 30 F (-1 C)
Windchill: 21 F (-6 C):1
Dew Point: 30 F (-1 C)
Relative Humidity: 100%
Pressure (altimeter): 30.30 in. Hg (1026 hPa)
ob: EDDC 302320Z AUTO 10008KT 4600 BR OVC003 M01/M01 Q1026
cycle: 23

Erfurt

EDDE

METAR
EDDE 302320Z AUTO 05003KT 5000 BR FEW004 BKN014 OVC020 03/02 Q1024
EDDEMETAR lang
Erfurt-Bindersleben, Germany (EDDE) 50-59N 010-58E 322M
Nov 30, 2022 - 06:20 PM EST / 2022.11.30 2320 UTC
Wind: from the NE (050 degrees) at 3 MPH (3 KT):0
Visibility: 3 mile(s):0
Sky conditions: overcast
Weather: mist
Temperature: 37 F (3 C)
Dew Point: 35 F (2 C)
Relative Humidity: 93%
Pressure (altimeter): 30.24 in. Hg (1024 hPa)
ob: EDDE 302320Z AUTO 05003KT 5000 BR FEW004 BKN014 OVC020 03/02 Q1024
cycle: 23

Frankfurt a. Main

EDDF

METAR
EDDF 302320Z AUTO 14004KT 9999 -DZ BKN013 06/05 Q1024 NOSIG
EDDFMETAR lang
Frankfurt / M-Flughafen, Germany (EDDF) 50-03N 008-36E 113M
Nov 30, 2022 - 06:20 PM EST / 2022.11.30 2320 UTC
Wind: from the SE (140 degrees) at 5 MPH (4 KT):0
Visibility: greater than 7 mile(s):0
Sky conditions: mostly cloudy
Weather: light drizzle
Temperature: 42 F (6 C)
Dew Point: 41 F (5 C)
Relative Humidity: 93%
Pressure (altimeter): 30.24 in. Hg (1024 hPa)
ob: EDDF 302320Z AUTO 14004KT 9999 -DZ BKN013 06/05 Q1024 NOSIG
cycle: 23

Münster Osnabrück

EDDG

METAR
EDDG 302320Z AUTO 01005KT 6000 OVC004 05/04 Q1026 TEMPO 4000 BR
EDDGMETAR lang
Muenster / Osnabrueck, Germany (EDDG) 52-08N 007-42E 53M
Nov 30, 2022 - 06:20 PM EST / 2022.11.30 2320 UTC
Wind: from the N (010 degrees) at 6 MPH (5 KT):0
Visibility: 3 mile(s):0
Sky conditions: overcast
Temperature: 41 F (5 C)
Dew Point: 39 F (4 C)
Relative Humidity: 93%
Pressure (altimeter): 30.30 in. Hg (1026 hPa)
ob: EDDG 302320Z AUTO 01005KT 6000 OVC004 05/04 Q1026 TEMPO 4000 BR
cycle: 23

Hamburg

EDDH

METAR
EDDH 302320Z AUTO 07003KT 4900 BR BKN007 BKN031 04/03 Q1027 TEMPO 5000
EDDHMETAR lang
Hamburg-Fuhlsbuettel, Germany (EDDH) 53-38N 010-00E 15M
Nov 30, 2022 - 06:20 PM EST / 2022.11.30 2320 UTC
Wind: from the ENE (070 degrees) at 3 MPH (3 KT):0
Visibility: 3 mile(s):0
Sky conditions: mostly cloudy
Weather: mist
Temperature: 39 F (4 C)
Dew Point: 37 F (3 C)
Relative Humidity: 93%
Pressure (altimeter): 30.33 in. Hg (1027 hPa)
ob: EDDH 302320Z AUTO 07003KT 4900 BR BKN007 BKN031 04/03 Q1027 TEMPO 5000
cycle: 23

Köln - Bonn

EDDK

METAR
EDDK 302320Z AUTO 32003KT 9999 FEW015 OVC039 05/05 Q1025 NOSIG
EDDKMETAR lang
Koeln / Bonn, Germany (EDDK) 50-52N 007-10E 100M
Nov 30, 2022 - 06:20 PM EST / 2022.11.30 2320 UTC
Wind: from the NW (320 degrees) at 3 MPH (3 KT):0
Visibility: greater than 7 mile(s):0
Sky conditions: overcast
Temperature: 41 F (5 C)
Dew Point: 41 F (5 C)
Relative Humidity: 100%
Pressure (altimeter): 30.27 in. Hg (1025 hPa)
ob: EDDK 302320Z AUTO 32003KT 9999 FEW015 OVC039 05/05 Q1025 NOSIG
cycle: 23

Düsseldorf

EDDL

METAR
EDDL 302320Z AUTO 01007KT 9999 OVC006 06/05 Q1026 NOSIG
EDDLMETAR lang
Duesseldorf, Germany (EDDL) 51-18N 006-46E 41M
Nov 30, 2022 - 06:20 PM EST / 2022.11.30 2320 UTC
Wind: from the N (010 degrees) at 8 MPH (7 KT):0
Visibility: greater than 7 mile(s):0
Sky conditions: overcast
Temperature: 42 F (6 C)
Dew Point: 41 F (5 C)
Relative Humidity: 93%
Pressure (altimeter): 30.30 in. Hg (1026 hPa)
ob: EDDL 302320Z AUTO 01007KT 9999 OVC006 06/05 Q1026 NOSIG
cycle: 23

München

EDDM

METAR
EDDM 302320Z AUTO VRB01KT 6000 OVC005 01/00 Q1021 NOSIG
EDDMMETAR lang
Munchen, Germany (EDDM) 48-21N 011-47E
Nov 30, 2022 - 06:20 PM EST / 2022.11.30 2320 UTC
Wind: Variable at 1 MPH (1 KT):0
Visibility: 3 mile(s):0
Sky conditions: overcast
Temperature: 33 F (1 C)
Dew Point: 32 F (0 C)
Relative Humidity: 93%
Pressure (altimeter): 30.15 in. Hg (1021 hPa)
ob: EDDM 302320Z AUTO VRB01KT 6000 OVC005 01/00 Q1021 NOSIG
cycle: 23

Nürnberg

EDDN

METAR
EDDN 302320Z AUTO VRB02KT 9999 OVC023 02/M01 Q1023
EDDNMETAR lang
Nuernberg, Germany (EDDN) 49-30N 011-03E 318M
Nov 30, 2022 - 06:20 PM EST / 2022.11.30 2320 UTC
Wind: Variable at 2 MPH (2 KT):0
Visibility: greater than 7 mile(s):0
Sky conditions: overcast
Temperature: 35 F (2 C)
Dew Point: 30 F (-1 C)
Relative Humidity: 80%
Pressure (altimeter): 30.21 in. Hg (1023 hPa)
ob: EDDN 302320Z AUTO VRB02KT 9999 OVC023 02/M01 Q1023
cycle: 23

Leipzig - Halle

EDDP

METAR
EDDP 302320Z AUTO 08011KT 3600 BR OVC004 01/01 Q1026 NOSIG
EDDPMETAR lang
Leipzig-Schkeuditz, Germany (EDDP) 51-25N 012-14E 149M
Nov 30, 2022 - 06:20 PM EST / 2022.11.30 2320 UTC
Wind: from the E (080 degrees) at 13 MPH (11 KT):0
Visibility: 2 mile(s):0
Sky conditions: overcast
Weather: mist
Temperature: 33 F (1 C)
Windchill: 23 F (-5 C):1
Dew Point: 33 F (1 C)
Relative Humidity: 100%
Pressure (altimeter): 30.30 in. Hg (1026 hPa)
ob: EDDP 302320Z AUTO 08011KT 3600 BR OVC004 01/01 Q1026 NOSIG
cycle: 23

Saarbrücken

EDDR

METAR
EDDR 302320Z AUTO 05008KT 010V080 9999 BKN005 OVC009 OVC033 05/05 Q1022
EDDRMETAR lang
Saarbruecken / Ensheim, Germany (EDDR) 49-13N 007-07E 320M
Nov 30, 2022 - 06:20 PM EST / 2022.11.30 2320 UTC
Wind: from the NE (050 degrees) at 9 MPH (8 KT) (direction variable):0
Visibility: greater than 7 mile(s):0
Sky conditions: overcast
Temperature: 41 F (5 C)
Dew Point: 41 F (5 C)
Relative Humidity: 100%
Pressure (altimeter): 30.18 in. Hg (1022 hPa)
ob: EDDR 302320Z AUTO 05008KT 010V080 9999 BKN005 OVC009 OVC033 05/05 Q1022
cycle: 23

Stuttgart

EDDS

METAR
EDDS 302320Z AUTO 03005KT 9999 SCT014 OVC026 03/01 Q1021
EDDSMETAR lang
Stuttgart-Echterdingen, Germany (EDDS) 48-41N 009-13E 391M
Nov 30, 2022 - 06:20 PM EST / 2022.11.30 2320 UTC
Wind: from the NNE (030 degrees) at 6 MPH (5 KT):0
Visibility: greater than 7 mile(s):0
Sky conditions: overcast
Temperature: 37 F (3 C)
Dew Point: 33 F (1 C)
Relative Humidity: 86%
Pressure (altimeter): 30.15 in. Hg (1021 hPa)
ob: EDDS 302320Z AUTO 03005KT 9999 SCT014 OVC026 03/01 Q1021
cycle: 23

Berlin - Tegel

EDDT

METAR
EDDT 090650Z 09006KT 050V120 3000 BR OVC003 06/05 Q1027
EDDTMETAR lang
Berlin-Tegel, Germany (EDDT) 52-34N 013-19E 37M
Nov 09, 2020 - 01:50 AM EST / 2020.11.09 0650 UTC
Wind: from the E (090 degrees) at 7 MPH (6 KT) (direction variable):0
Visibility: 1 mile(s):0
Sky conditions: overcast
Weather: mist
Temperature: 42 F (6 C)
Dew Point: 41 F (5 C)
Relative Humidity: 93%
Pressure (altimeter): 30.33 in. Hg (1027 hPa)
ob: EDDT 090650Z 09006KT 050V120 3000 BR OVC003 06/05 Q1027
cycle: 7

Hannover

EDDV

METAR
EDDV 302320Z AUTO 08005KT 5000 BR BKN007 BKN014 OVC047 04/03 Q1026
EDDVMETAR lang
Hannover, Germany (EDDV) 52-28N 009-41E 59M
Nov 30, 2022 - 06:20 PM EST / 2022.11.30 2320 UTC
Wind: from the E (080 degrees) at 6 MPH (5 KT):0
Visibility: 3 mile(s):0
Sky conditions: overcast
Weather: mist
Temperature: 39 F (4 C)
Dew Point: 37 F (3 C)
Relative Humidity: 93%
Pressure (altimeter): 30.30 in. Hg (1026 hPa)
ob: EDDV 302320Z AUTO 08005KT 5000 BR BKN007 BKN014 OVC047 04/03 Q1026
cycle: 23

Bremen

EDDW

METAR
EDDW 302320Z AUTO 05005KT 5000 BR BKN004 04/04 Q1027
EDDWMETAR lang
Bremen, Germany (EDDW) 53-03N 008-48E 5M
Nov 30, 2022 - 06:20 PM EST / 2022.11.30 2320 UTC
Wind: from the NE (050 degrees) at 6 MPH (5 KT):0
Visibility: 3 mile(s):0
Sky conditions: mostly cloudy
Weather: mist
Temperature: 39 F (4 C)
Dew Point: 39 F (4 C)
Relative Humidity: 100%
Pressure (altimeter): 30.33 in. Hg (1027 hPa)
ob: EDDW 302320Z AUTO 05005KT 5000 BR BKN004 04/04 Q1027
cycle: 23